sensor_id;sensor_type;location;lat;lon;timestamp;temperature;humidity
43541;DHT22;29549;40.386;-3.710;2023-09-19T00:00:01;20.70;63.00
43541;DHT22;29549;40.386;-3.710;2023-09-19T00:00:12;20.70;63.00
43541;DHT22;29549;40.386;-3.710;2023-09-19T00:00:23;20.70;63.00
43541;DHT22;29549;40.386;-3.710;2023-09-19T00:00:38;20.70;63.00
43541;DHT22;29549;40.386;-3.710;2023-09-19T00:00:50;20.70;63.00
43541;DHT22;29549;40.386;-3.710;2023-09-19T00:01:06;20.70;63.00
43541;DHT22;29549;40.386;-3.710;2023-09-19T00:01:22;20.70;63.10
43541;DHT22;29549;40.386;-3.710;2023-09-19T00:01:34;20.70;63.10
43541;DHT22;29549;40.386;-3.710;2023-09-19T00:01:45;20.70;63.10
43541;DHT22;29549;40.386;-3.710;2023-09-19T00:01:56;20.70;63.10
43541;DHT22;29549;40.386;-3.710;2023-09-19T00:02:07;20.70;63.10
43541;DHT22;29549;40.386;-3.710;2023-09-19T00:02:19;20.70;63.10
43541;DHT22;29549;40.386;-3.710;2023-09-19T00:02:30;20.70;63.10
43541;DHT22;29549;40.386;-3.710;2023-09-19T00:02:41;20.70;63.10
43541;DHT22;29549;40.386;-3.710;2023-09-19T00:02:53;20.70;63.10
43541;DHT22;29549;40.386;-3.710;2023-09-19T00:03:06;20.70;63.10
43541;DHT22;29549;40.386;-3.710;2023-09-19T00:03:16;20.70;63.10
43541;DHT22;29549;40.386;-3.710;2023-09-19T00:03:27;20.70;63.10
43541;DHT22;29549;40.386;-3.710;2023-09-19T00:03:39;20.70;63.20
43541;DHT22;29549;40.386;-3.710;2023-09-19T00:03:49;20.70;63.20
43541;DHT22;29549;40.386;-3.710;2023-09-19T00:04:00;20.70;63.20
43541;DHT22;29549;40.386;-3.710;2023-09-19T00:04:12;20.70;63.20
43541;DHT22;29549;40.386;-3.710;2023-09-19T00:04:23;20.70;63.20
43541;DHT22;29549;40.386;-3.710;2023-09-19T00:04:39;20.70;63.20
43541;DHT22;29549;40.386;-3.710;2023-09-19T00:04:50;20.70;63.20
43541;DHT22;29549;40.386;-3.710;2023-09-19T00:05:02;20.70;63.20
43541;DHT22;29549;40.386;-3.710;2023-09-19T00:05:14;20.70;63.30
43541;DHT22;29549;40.386;-3.710;2023-09-19T00:05:25;20.70;63.20
43541;DHT22;29549;40.386;-3.710;2023-09-19T00:05:39;20.70;63.20
43541;DHT22;29549;40.386;-3.710;2023-09-19T00:05:50;20.70;63.20
43541;DHT22;29549;40.386;-3.710;2023-09-19T00:06:01;20.70;63.20
43541;DHT22;29549;40.386;-3.710;2023-09-19T00:06:12;20.70;63.30
43541;DHT22;29549;40.386;-3.710;2023-09-19T00:06:29;20.70;63.30
43541;DHT22;29549;40.386;-3.710;2023-09-19T00:06:41;20.60;63.30
43541;DHT22;29549;40.386;-3.710;2023-09-19T00:06:53;20.60;63.30
43541;DHT22;29549;40.386;-3.710;2023-09-19T00:07:04;20.70;63.40
43541;DHT22;29549;40.386;-3.710;2023-09-19T00:07:14;20.60;63.40
43541;DHT22;29549;40.386;-3.710;2023-09-19T00:07:26;20.60;63.40
43541;DHT22;29549;40.386;-3.710;2023-09-19T00:07:38;20.60;63.40
43541;DHT22;29549;40.386;-3.710;2023-09-19T00:07:52;20.60;63.40
43541;DHT22;29549;40.386;-3.710;2023-09-19T00:08:05;20.70;63.40
43541;DHT22;29549;40.386;-3.710;2023-09-19T00:08:16;20.60;63.40
43541;DHT22;29549;40.386;-3.710;2023-09-19T00:08:26;20.60;63.40
43541;DHT22;29549;40.386;-3.710;2023-09-19T00:08:38;20.60;63.40
43541;DHT22;29549;40.386;-3.710;2023-09-19T00:08:48;20.60;63.40
43541;DHT22;29549;40.386;-3.710;2023-09-19T00:08:59;20.60;63.50
43541;DHT22;29549;40.386;-3.710;2023-09-19T00:09:10;20.60;63.50
43541;DHT22;29549;40.386;-3.710;2023-09-19T00:09:21;20.60;63.50
43541;DHT22;29549;40.386;-3.710;2023-09-19T00:09:32;20.60;63.50
43541;DHT22;29549;40.386;-3.710;2023-09-19T00:09:47;20.60;63.50
43541;DHT22;29549;40.386;-3.710;2023-09-19T00:09:58;20.60;63.60
43541;DHT22;29549;40.386;-3.710;2023-09-19T00:10:09;20.60;63.60
43541;DHT22;29549;40.386;-3.710;2023-09-19T00:10:24;20.60;63.60
43541;DHT22;29549;40.386;-3.710;2023-09-19T00:10:35;20.60;63.60
43541;DHT22;29549;40.386;-3.710;2023-09-19T00:10:45;20.60;63.60
43541;DHT22;29549;40.386;-3.710;2023-09-19T00:10:56;20.60;63.60
43541;DHT22;29549;40.386;-3.710;2023-09-19T00:11:14;20.60;63.60
43541;DHT22;29549;40.386;-3.710;2023-09-19T00:11:25;20.60;63.70
43541;DHT22;29549;40.386;-3.710;2023-09-19T00:11:37;20.60;63.70
43541;DHT22;29549;40.386;-3.710;2023-09-19T00:11:49;20.60;63.70
43541;DHT22;29549;40.386;-3.710;2023-09-19T00:12:00;20.60;63.70
43541;DHT22;29549;40.386;-3.710;2023-09-19T00:12:11;20.60;63.70
43541;DHT22;29549;40.386;-3.710;2023-09-19T00:12:23;20.60;63.70
43541;DHT22;29549;40.386;-3.710;2023-09-19T00:12:34;20.60;63.70
43541;DHT22;29549;40.386;-3.710;2023-09-19T00:12:45;20.60;63.70
43541;DHT22;29549;40.386;-3.710;2023-09-19T00:12:58;20.60;63.70
43541;DHT22;29549;40.386;-3.710;2023-09-19T00:13:10;20.60;63.70
43541;DHT22;29549;40.386;-3.710;2023-09-19T00:13:23;20.60;63.70
43541;DHT22;29549;40.386;-3.710;2023-09-19T00:13:35;20.50;63.70
43541;DHT22;29549;40.386;-3.710;2023-09-19T00:13:48;20.60;63.70
43541;DHT22;29549;40.386;-3.710;2023-09-19T00:14:00;20.60;63.80
43541;DHT22;29549;40.386;-3.710;2023-09-19T00:14:11;20.60;63.80
43541;DHT22;29549;40.386;-3.710;2023-09-19T00:14:25;20.60;63.80
43541;DHT22;29549;40.386;-3.710;2023-09-19T00:14:36;20.60;63.80
43541;DHT22;29549;40.386;-3.710;2023-09-19T00:14:47;20.60;63.90
43541;DHT22;29549;40.386;-3.710;2023-09-19T00:14:58;20.60;63.90
43541;DHT22;29549;40.386;-3.710;2023-09-19T00:15:11;20.60;63.90
43541;DHT22;29549;40.386;-3.710;2023-09-19T00:15:25;20.60;63.90
43541;DHT22;29549;40.386;-3.710;2023-09-19T00:15:48;20.60;63.80
43541;DHT22;29549;40.386;-3.710;2023-09-19T00:15:59;20.60;63.70
43541;DHT22;29549;40.386;-3.710;2023-09-19T00:16:10;20.60;63.70
43541;DHT22;29549;40.386;-3.710;2023-09-19T00:16:21;20.60;63.70
43541;DHT22;29549;40.386;-3.710;2023-09-19T00:16:33;20.50;63.60
43541;DHT22;29549;40.386;-3.710;2023-09-19T00:16:44;20.60;63.60
43541;DHT22;29549;40.386;-3.710;2023-09-19T00:16:56;20.60;63.60
43541;DHT22;29549;40.386;-3.710;2023-09-19T00:17:08;20.60;63.60
43541;DHT22;29549;40.386;-3.710;2023-09-19T00:17:19;20.60;63.70
43541;DHT22;29549;40.386;-3.710;2023-09-19T00:17:31;20.60;63.70
43541;DHT22;29549;40.386;-3.710;2023-09-19T00:17:42;20.60;63.70
43541;DHT22;29549;40.386;-3.710;2023-09-19T00:17:54;20.50;63.70
43541;DHT22;29549;40.386;-3.710;2023-09-19T00:18:06;20.60;63.70
43541;DHT22;29549;40.386;-3.710;2023-09-19T00:18:20;20.60;63.70
43541;DHT22;29549;40.386;-3.710;2023-09-19T00:18:32;20.60;63.70
43541;DHT22;29549;40.386;-3.710;2023-09-19T00:18:45;20.60;63.70
43541;DHT22;29549;40.386;-3.710;2023-09-19T00:18:56;20.60;63.70
43541;DHT22;29549;40.386;-3.710;2023-09-19T00:19:07;20.60;63.70
43541;DHT22;29549;40.386;-3.710;2023-09-19T00:19:18;20.60;63.70
43541;DHT22;29549;40.386;-3.710;2023-09-19T00:19:29;20.60;63.70
43541;DHT22;29549;40.386;-3.710;2023-09-19T00:19:40;20.60;63.70
43541;DHT22;29549;40.386;-3.710;2023-09-19T00:19:53;20.60;63.70
43541;DHT22;29549;40.386;-3.710;2023-09-19T00:20:04;20.60;63.60
43541;DHT22;29549;40.386;-3.710;2023-09-19T00:20:23;20.60;63.70
43541;DHT22;29549;40.386;-3.710;2023-09-19T00:20:38;20.60;63.70
43541;DHT22;29549;40.386;-3.710;2023-09-19T00:20:49;20.60;63.70
43541;DHT22;29549;40.386;-3.710;2023-09-19T00:21:01;20.60;63.70
43541;DHT22;29549;40.386;-3.710;2023-09-19T00:21:15;20.60;63.70
43541;DHT22;29549;40.386;-3.710;2023-09-19T00:21:25;20.60;63.70
43541;DHT22;29549;40.386;-3.710;2023-09-19T00:21:36;20.60;63.70
43541;DHT22;29549;40.386;-3.710;2023-09-19T00:21:48;20.60;63.70
43541;DHT22;29549;40.386;-3.710;2023-09-19T00:21:58;20.60;63.70
43541;DHT22;29549;40.386;-3.710;2023-09-19T00:22:09;20.60;63.70
43541;DHT22;29549;40.386;-3.710;2023-09-19T00:22:20;20.60;63.60
43541;DHT22;29549;40.386;-3.710;2023-09-19T00:22:31;20.60;63.60
43541;DHT22;29549;40.386;-3.710;2023-09-19T00:22:42;20.60;63.60
43541;DHT22;29549;40.386;-3.710;2023-09-19T00:22:53;20.60;63.60
43541;DHT22;29549;40.386;-3.710;2023-09-19T00:23:05;20.60;63.70
43541;DHT22;29549;40.386;-3.710;2023-09-19T00:23:16;20.60;63.60
43541;DHT22;29549;40.386;-3.710;2023-09-19T00:23:27;20.60;63.70
43541;DHT22;29549;40.386;-3.710;2023-09-19T00:23:39;20.60;63.70
43541;DHT22;29549;40.386;-3.710;2023-09-19T00:23:51;20.60;63.80
43541;DHT22;29549;40.386;-3.710;2023-09-19T00:24:02;20.60;63.90
43541;DHT22;29549;40.386;-3.710;2023-09-19T00:24:13;20.60;63.90
43541;DHT22;29549;40.386;-3.710;2023-09-19T00:24:24;20.60;64.00
43541;DHT22;29549;40.386;-3.710;2023-09-19T00:24:35;20.60;64.00
43541;DHT22;29549;40.386;-3.710;2023-09-19T00:24:45;20.60;64.00
43541;DHT22;29549;40.386;-3.710;2023-09-19T00:24:56;20.60;64.00
43541;DHT22;29549;40.386;-3.710;2023-09-19T00:25:07;20.60;64.00
43541;DHT22;29549;40.386;-3.710;2023-09-19T00:25:18;20.60;64.00
43541;DHT22;29549;40.386;-3.710;2023-09-19T00:25:28;20.60;63.90
43541;DHT22;29549;40.386;-3.710;2023-09-19T00:25:39;20.60;63.90
43541;DHT22;29549;40.386;-3.710;2023-09-19T00:25:51;20.60;63.90
43541;DHT22;29549;40.386;-3.710;2023-09-19T00:26:01;20.60;63.90
43541;DHT22;29549;40.386;-3.710;2023-09-19T00:26:12;20.60;64.00
43541;DHT22;29549;40.386;-3.710;2023-09-19T00:26:23;20.60;64.00
43541;DHT22;29549;40.386;-3.710;2023-09-19T00:26:34;20.60;63.90
43541;DHT22;29549;40.386;-3.710;2023-09-19T00:26:45;20.60;63.90
43541;DHT22;29549;40.386;-3.710;2023-09-19T00:26:57;20.60;63.80
43541;DHT22;29549;40.386;-3.710;2023-09-19T00:27:09;20.60;63.80
43541;DHT22;29549;40.386;-3.710;2023-09-19T00:27:20;20.60;63.80
43541;DHT22;29549;40.386;-3.710;2023-09-19T00:27:30;20.60;63.80
43541;DHT22;29549;40.386;-3.710;2023-09-19T00:27:41;20.60;63.80
43541;DHT22;29549;40.386;-3.710;2023-09-19T00:27:54;20.60;63.80
43541;DHT22;29549;40.386;-3.710;2023-09-19T00:28:06;20.50;63.80
43541;DHT22;29549;40.386;-3.710;2023-09-19T00:28:18;20.50;63.90
43541;DHT22;29549;40.386;-3.710;2023-09-19T00:28:30;20.60;63.90
43541;DHT22;29549;40.386;-3.710;2023-09-19T00:28:42;20.60;63.90
43541;DHT22;29549;40.386;-3.710;2023-09-19T00:28:52;20.60;63.90
43541;DHT22;29549;40.386;-3.710;2023-09-19T00:29:03;20.60;63.90
43541;DHT22;29549;40.386;-3.710;2023-09-19T00:29:14;20.60;63.90
43541;DHT22;29549;40.386;-3.710;2023-09-19T00:29:26;20.60;64.00
43541;DHT22;29549;40.386;-3.710;2023-09-19T00:29:42;20.50;64.10
43541;DHT22;29549;40.386;-3.710;2023-09-19T00:29:52;20.50;64.20
43541;DHT22;29549;40.386;-3.710;2023-09-19T00:30:03;20.60;64.20
43541;DHT22;29549;40.386;-3.710;2023-09-19T00:30:14;20.60;64.10
43541;DHT22;29549;40.386;-3.710;2023-09-19T00:30:30;20.60;64.20
43541;DHT22;29549;40.386;-3.710;2023-09-19T00:30:42;20.60;64.10
43541;DHT22;29549;40.386;-3.710;2023-09-19T00:30:53;20.50;64.00
43541;DHT22;29549;40.386;-3.710;2023-09-19T00:31:10;20.50;64.00
43541;DHT22;29549;40.386;-3.710;2023-09-19T00:31:21;20.50;64.00
43541;DHT22;29549;40.386;-3.710;2023-09-19T00:31:35;20.50;64.00
43541;DHT22;29549;40.386;-3.710;2023-09-19T00:31:48;20.60;64.00
43541;DHT22;29549;40.386;-3.710;2023-09-19T00:31:59;20.50;64.00
43541;DHT22;29549;40.386;-3.710;2023-09-19T00:32:09;20.50;64.00
43541;DHT22;29549;40.386;-3.710;2023-09-19T00:32:20;20.50;64.00
43541;DHT22;29549;40.386;-3.710;2023-09-19T00:32:31;20.60;64.00
43541;DHT22;29549;40.386;-3.710;2023-09-19T00:32:42;20.60;64.00
43541;DHT22;29549;40.386;-3.710;2023-09-19T00:32:53;20.50;64.10
43541;DHT22;29549;40.386;-3.710;2023-09-19T00:33:05;20.50;64.10
43541;DHT22;29549;40.386;-3.710;2023-09-19T00:33:19;20.50;64.10
43541;DHT22;29549;40.386;-3.710;2023-09-19T00:33:30;20.50;64.10
43541;DHT22;29549;40.386;-3.710;2023-09-19T00:33:40;20.60;64.10
43541;DHT22;29549;40.386;-3.710;2023-09-19T00:33:51;20.60;64.10
43541;DHT22;29549;40.386;-3.710;2023-09-19T00:34:02;20.50;64.10
43541;DHT22;29549;40.386;-3.710;2023-09-19T00:34:14;20.60;64.10
43541;DHT22;29549;40.386;-3.710;2023-09-19T00:34:26;20.60;64.00
43541;DHT22;29549;40.386;-3.710;2023-09-19T00:34:38;20.60;64.10
43541;DHT22;29549;40.386;-3.710;2023-09-19T00:34:49;20.50;64.00
43541;DHT22;29549;40.386;-3.710;2023-09-19T00:34:59;20.50;64.00
43541;DHT22;29549;40.386;-3.710;2023-09-19T00:35:10;20.60;64.00
43541;DHT22;29549;40.386;-3.710;2023-09-19T00:35:21;20.50;63.90
43541;DHT22;29549;40.386;-3.710;2023-09-19T00:35:35;20.50;64.00
43541;DHT22;29549;40.386;-3.710;2023-09-19T00:35:53;20.50;63.90
43541;DHT22;29549;40.386;-3.710;2023-09-19T00:36:04;20.50;64.00
43541;DHT22;29549;40.386;-3.710;2023-09-19T00:36:16;20.60;63.90
43541;DHT22;29549;40.386;-3.710;2023-09-19T00:36:26;20.60;63.90
43541;DHT22;29549;40.386;-3.710;2023-09-19T00:36:37;20.50;63.90
43541;DHT22;29549;40.386;-3.710;2023-09-19T00:36:51;20.60;63.90
43541;DHT22;29549;40.386;-3.710;2023-09-19T00:37:03;20.50;63.90
43541;DHT22;29549;40.386;-3.710;2023-09-19T00:37:14;20.50;63.80
43541;DHT22;29549;40.386;-3.710;2023-09-19T00:37:25;20.50;63.80
43541;DHT22;29549;40.386;-3.710;2023-09-19T00:37:35;20.60;63.90
43541;DHT22;29549;40.386;-3.710;2023-09-19T00:37:46;20.50;63.90
43541;DHT22;29549;40.386;-3.710;2023-09-19T00:37:57;20.50;63.90
43541;DHT22;29549;40.386;-3.710;2023-09-19T00:38:07;20.60;63.90
43541;DHT22;29549;40.386;-3.710;2023-09-19T00:38:19;20.60;63.90
43541;DHT22;29549;40.386;-3.710;2023-09-19T00:38:35;20.60;63.90
43541;DHT22;29549;40.386;-3.710;2023-09-19T00:38:45;20.60;63.90
43541;DHT22;29549;40.386;-3.710;2023-09-19T00:38:57;20.50;63.90
43541;DHT22;29549;40.386;-3.710;2023-09-19T00:39:07;20.60;63.90
43541;DHT22;29549;40.386;-3.710;2023-09-19T00:39:19;20.50;63.90
43541;DHT22;29549;40.386;-3.710;2023-09-19T00:39:30;20.60;63.90
43541;DHT22;29549;40.386;-3.710;2023-09-19T00:39:41;20.50;63.90
43541;DHT22;29549;40.386;-3.710;2023-09-19T00:39:52;20.50;63.90
43541;DHT22;29549;40.386;-3.710;2023-09-19T00:40:10;20.60;63.90
43541;DHT22;29549;40.386;-3.710;2023-09-19T00:40:25;20.50;63.90
43541;DHT22;29549;40.386;-3.710;2023-09-19T00:40:36;20.50;63.90
43541;DHT22;29549;40.386;-3.710;2023-09-19T00:40:48;20.50;63.90
43541;DHT22;29549;40.386;-3.710;2023-09-19T00:40:59;20.50;63.90
43541;DHT22;29549;40.386;-3.710;2023-09-19T00:41:10;20.50;63.90
43541;DHT22;29549;40.386;-3.710;2023-09-19T00:41:21;20.50;63.90
43541;DHT22;29549;40.386;-3.710;2023-09-19T00:41:35;20.50;63.90
43541;DHT22;29549;40.386;-3.710;2023-09-19T00:41:49;20.50;63.90
43541;DHT22;29549;40.386;-3.710;2023-09-19T00:41:59;20.50;63.90
43541;DHT22;29549;40.386;-3.710;2023-09-19T00:42:19;20.50;64.00
43541;DHT22;29549;40.386;-3.710;2023-09-19T00:42:32;20.50;64.00
43541;DHT22;29549;40.386;-3.710;2023-09-19T00:42:45;20.50;64.00
43541;DHT22;29549;40.386;-3.710;2023-09-19T00:42:59;20.50;64.00
43541;DHT22;29549;40.386;-3.710;2023-09-19T00:43:13;20.50;64.10
43541;DHT22;29549;40.386;-3.710;2023-09-19T00:43:23;20.50;64.10
43541;DHT22;29549;40.386;-3.710;2023-09-19T00:43:34;20.50;64.10
43541;DHT22;29549;40.386;-3.710;2023-09-19T00:43:45;20.50;64.10
43541;DHT22;29549;40.386;-3.710;2023-09-19T00:43:56;20.50;64.10
43541;DHT22;29549;40.386;-3.710;2023-09-19T00:44:06;20.50;64.10
43541;DHT22;29549;40.386;-3.710;2023-09-19T00:44:17;20.50;64.10
43541;DHT22;29549;40.386;-3.710;2023-09-19T00:44:30;20.50;64.10
43541;DHT22;29549;40.386;-3.710;2023-09-19T00:44:41;20.50;64.10
43541;DHT22;29549;40.386;-3.710;2023-09-19T00:44:51;20.50;64.10
43541;DHT22;29549;40.386;-3.710;2023-09-19T00:45:02;20.50;64.10
43541;DHT22;29549;40.386;-3.710;2023-09-19T00:45:15;20.50;64.10
43541;DHT22;29549;40.386;-3.710;2023-09-19T00:45:26;20.50;64.20
43541;DHT22;29549;40.386;-3.710;2023-09-19T00:45:42;20.40;64.20
43541;DHT22;29549;40.386;-3.710;2023-09-19T00:45:54;20.50;64.20
43541;DHT22;29549;40.386;-3.710;2023-09-19T00:46:05;20.40;64.10
43541;DHT22;29549;40.386;-3.710;2023-09-19T00:46:17;20.50;64.20
43541;DHT22;29549;40.386;-3.710;2023-09-19T00:46:28;20.50;64.20
43541;DHT22;29549;40.386;-3.710;2023-09-19T00:46:39;20.50;64.20
43541;DHT22;29549;40.386;-3.710;2023-09-19T00:46:50;20.50;64.20
43541;DHT22;29549;40.386;-3.710;2023-09-19T00:47:02;20.50;64.20
43541;DHT22;29549;40.386;-3.710;2023-09-19T00:47:13;20.50;64.20
43541;DHT22;29549;40.386;-3.710;2023-09-19T00:47:28;20.50;64.20
43541;DHT22;29549;40.386;-3.710;2023-09-19T00:47:43;20.50;64.20
43541;DHT22;29549;40.386;-3.710;2023-09-19T00:47:54;20.50;64.10
43541;DHT22;29549;40.386;-3.710;2023-09-19T00:48:05;20.50;64.20
43541;DHT22;29549;40.386;-3.710;2023-09-19T00:48:20;20.50;64.20
43541;DHT22;29549;40.386;-3.710;2023-09-19T00:48:40;20.50;64.20
43541;DHT22;29549;40.386;-3.710;2023-09-19T00:48:51;20.50;64.20
43541;DHT22;29549;40.386;-3.710;2023-09-19T00:49:02;20.50;64.20
43541;DHT22;29549;40.386;-3.710;2023-09-19T00:49:13;20.40;64.20
43541;DHT22;29549;40.386;-3.710;2023-09-19T00:49:24;20.50;64.20
43541;DHT22;29549;40.386;-3.710;2023-09-19T00:49:36;20.50;64.20
43541;DHT22;29549;40.386;-3.710;2023-09-19T00:49:48;20.50;64.30
43541;DHT22;29549;40.386;-3.710;2023-09-19T00:50:04;20.50;64.30
43541;DHT22;29549;40.386;-3.710;2023-09-19T00:50:19;20.50;64.30
43541;DHT22;29549;40.386;-3.710;2023-09-19T00:50:30;20.50;64.20
43541;DHT22;29549;40.386;-3.710;2023-09-19T00:50:43;20.50;64.20
43541;DHT22;29549;40.386;-3.710;2023-09-19T00:50:55;20.50;64.20
43541;DHT22;29549;40.386;-3.710;2023-09-19T00:51:08;20.40;64.20
43541;DHT22;29549;40.386;-3.710;2023-09-19T00:51:20;20.50;64.30
43541;DHT22;29549;40.386;-3.710;2023-09-19T00:51:31;20.50;64.20
43541;DHT22;29549;40.386;-3.710;2023-09-19T00:51:42;20.50;64.30
43541;DHT22;29549;40.386;-3.710;2023-09-19T00:51:57;20.50;64.20
43541;DHT22;29549;40.386;-3.710;2023-09-19T00:52:08;20.40;64.20
43541;DHT22;29549;40.386;-3.710;2023-09-19T00:52:20;20.50;64.30
43541;DHT22;29549;40.386;-3.710;2023-09-19T00:52:32;20.50;64.20
43541;DHT22;29549;40.386;-3.710;2023-09-19T00:52:43;20.40;64.20
43541;DHT22;29549;40.386;-3.710;2023-09-19T00:52:54;20.50;64.20
43541;DHT22;29549;40.386;-3.710;2023-09-19T00:53:09;20.50;64.30
43541;DHT22;29549;40.386;-3.710;2023-09-19T00:53:22;20.50;64.30
43541;DHT22;29549;40.386;-3.710;2023-09-19T00:53:34;20.50;64.30
43541;DHT22;29549;40.386;-3.710;2023-09-19T00:53:46;20.50;64.30
43541;DHT22;29549;40.386;-3.710;2023-09-19T00:53:57;20.40;64.30
43541;DHT22;29549;40.386;-3.710;2023-09-19T00:54:09;20.50;64.30
43541;DHT22;29549;40.386;-3.710;2023-09-19T00:54:20;20.50;64.30
43541;DHT22;29549;40.386;-3.710;2023-09-19T00:54:31;20.50;64.30
43541;DHT22;29549;40.386;-3.710;2023-09-19T00:54:44;20.50;64.30
43541;DHT22;29549;40.386;-3.710;2023-09-19T00:54:55;20.50;64.40
43541;DHT22;29549;40.386;-3.710;2023-09-19T00:55:38;20.50;64.50
43541;DHT22;29549;40.386;-3.710;2023-09-19T00:55:50;20.50;64.50
43541;DHT22;29549;40.386;-3.710;2023-09-19T00:56:03;20.50;64.40
43541;DHT22;29549;40.386;-3.710;2023-09-19T00:56:17;20.50;64.40
43541;DHT22;29549;40.386;-3.710;2023-09-19T00:56:28;20.50;64.40
43541;DHT22;29549;40.386;-3.710;2023-09-19T00:56:39;20.50;64.40
43541;DHT22;29549;40.386;-3.710;2023-09-19T00:56:50;20.50;64.40
43541;DHT22;29549;40.386;-3.710;2023-09-19T00:57:04;20.50;64.40
43541;DHT22;29549;40.386;-3.710;2023-09-19T00:57:14;20.50;64.40
43541;DHT22;29549;40.386;-3.710;2023-09-19T00:57:25;20.50;64.40
43541;DHT22;29549;40.386;-3.710;2023-09-19T00:57:38;20.50;64.40
43541;DHT22;29549;40.386;-3.710;2023-09-19T00:57:49;20.50;64.40
43541;DHT22;29549;40.386;-3.710;2023-09-19T00:58:00;20.50;64.40
43541;DHT22;29549;40.386;-3.710;2023-09-19T00:58:11;20.50;64.40
43541;DHT22;29549;40.386;-3.710;2023-09-19T00:58:22;20.50;64.50
43541;DHT22;29549;40.386;-3.710;2023-09-19T00:58:34;20.50;64.50
43541;DHT22;29549;40.386;-3.710;2023-09-19T00:58:46;20.50;64.50
43541;DHT22;29549;40.386;-3.710;2023-09-19T00:58:57;20.50;64.50
43541;DHT22;29549;40.386;-3.710;2023-09-19T00:59:07;20.40;64.50
43541;DHT22;29549;40.386;-3.710;2023-09-19T00:59:18;20.40;64.50
43541;DHT22;29549;40.386;-3.710;2023-09-19T00:59:29;20.50;64.50
43541;DHT22;29549;40.386;-3.710;2023-09-19T00:59:41;20.50;64.50
43541;DHT22;29549;40.386;-3.710;2023-09-19T00:59:54;20.50;64.50
43541;DHT22;29549;40.386;-3.710;2023-09-19T01:00:09;20.50;64.50
43541;DHT22;29549;40.386;-3.710;2023-09-19T01:00:26;20.50;64.50
43541;DHT22;29549;40.386;-3.710;2023-09-19T01:00:37;20.40;64.40
43541;DHT22;29549;40.386;-3.710;2023-09-19T01:00:49;20.50;64.40
43541;DHT22;29549;40.386;-3.710;2023-09-19T01:01:00;20.50;64.30
43541;DHT22;29549;40.386;-3.710;2023-09-19T01:01:12;20.40;64.30
43541;DHT22;29549;40.386;-3.710;2023-09-19T01:01:25;20.50;64.30
43541;DHT22;29549;40.386;-3.710;2023-09-19T01:01:35;20.50;64.20
43541;DHT22;29549;40.386;-3.710;2023-09-19T01:01:50;20.50;64.30
43541;DHT22;29549;40.386;-3.710;2023-09-19T01:02:04;20.50;64.30
43541;DHT22;29549;40.386;-3.710;2023-09-19T01:02:16;20.40;64.20
43541;DHT22;29549;40.386;-3.710;2023-09-19T01:02:27;20.50;64.20
43541;DHT22;29549;40.386;-3.710;2023-09-19T01:02:38;20.50;64.20
43541;DHT22;29549;40.386;-3.710;2023-09-19T01:02:49;20.50;64.20
43541;DHT22;29549;40.386;-3.710;2023-09-19T01:03:00;20.50;64.20
43541;DHT22;29549;40.386;-3.710;2023-09-19T01:03:15;20.40;64.20
43541;DHT22;29549;40.386;-3.710;2023-09-19T01:03:25;20.40;64.20
43541;DHT22;29549;40.386;-3.710;2023-09-19T01:03:37;20.40;64.20
43541;DHT22;29549;40.386;-3.710;2023-09-19T01:03:47;20.40;64.20
43541;DHT22;29549;40.386;-3.710;2023-09-19T01:03:58;20.50;64.20
43541;DHT22;29549;40.386;-3.710;2023-09-19T01:04:09;20.50;64.20
43541;DHT22;29549;40.386;-3.710;2023-09-19T01:04:20;20.40;64.20
43541;DHT22;29549;40.386;-3.710;2023-09-19T01:04:31;20.40;64.10
43541;DHT22;29549;40.386;-3.710;2023-09-19T01:04:42;20.40;64.10
43541;DHT22;29549;40.386;-3.710;2023-09-19T01:04:54;20.40;64.10
43541;DHT22;29549;40.386;-3.710;2023-09-19T01:05:05;20.40;64.10
43541;DHT22;29549;40.386;-3.710;2023-09-19T01:05:16;20.40;64.10
43541;DHT22;29549;40.386;-3.710;2023-09-19T01:05:27;20.40;64.10
43541;DHT22;29549;40.386;-3.710;2023-09-19T01:05:39;20.40;64.20
43541;DHT22;29549;40.386;-3.710;2023-09-19T01:05:50;20.50;64.20
43541;DHT22;29549;40.386;-3.710;2023-09-19T01:06:01;20.40;64.20
43541;DHT22;29549;40.386;-3.710;2023-09-19T01:06:13;20.40;64.10
43541;DHT22;29549;40.386;-3.710;2023-09-19T01:06:24;20.40;64.10
43541;DHT22;29549;40.386;-3.710;2023-09-19T01:06:34;20.50;64.10
43541;DHT22;29549;40.386;-3.710;2023-09-19T01:06:47;20.40;64.10
43541;DHT22;29549;40.386;-3.710;2023-09-19T01:07:03;20.40;64.10
43541;DHT22;29549;40.386;-3.710;2023-09-19T01:07:14;20.40;64.10
43541;DHT22;29549;40.386;-3.710;2023-09-19T01:07:26;20.40;64.10
43541;DHT22;29549;40.386;-3.710;2023-09-19T01:07:37;20.50;64.10
43541;DHT22;29549;40.386;-3.710;2023-09-19T01:07:50;20.40;64.10
43541;DHT22;29549;40.386;-3.710;2023-09-19T01:08:04;20.40;64.10
43541;DHT22;29549;40.386;-3.710;2023-09-19T01:08:14;20.40;64.20
43541;DHT22;29549;40.386;-3.710;2023-09-19T01:08:25;20.40;64.20
43541;DHT22;29549;40.386;-3.710;2023-09-19T01:08:40;20.40;64.20
43541;DHT22;29549;40.386;-3.710;2023-09-19T01:08:50;20.40;64.20
43541;DHT22;29549;40.386;-3.710;2023-09-19T01:09:01;20.40;64.30
43541;DHT22;29549;40.386;-3.710;2023-09-19T01:09:14;20.40;64.30
43541;DHT22;29549;40.386;-3.710;2023-09-19T01:09:25;20.40;64.30
43541;DHT22;29549;40.386;-3.710;2023-09-19T01:09:37;20.40;64.30
43541;DHT22;29549;40.386;-3.710;2023-09-19T01:09:49;20.40;64.30
43541;DHT22;29549;40.386;-3.710;2023-09-19T01:10:02;20.40;64.30
43541;DHT22;29549;40.386;-3.710;2023-09-19T01:10:17;20.40;64.30
43541;DHT22;29549;40.386;-3.710;2023-09-19T01:10:33;20.40;64.30
43541;DHT22;29549;40.386;-3.710;2023-09-19T01:10:53;20.40;64.30
43541;DHT22;29549;40.386;-3.710;2023-09-19T01:11:51;20.40;64.20
43541;DHT22;29549;40.386;-3.710;2023-09-19T01:12:00;20.40;64.30
43541;DHT22;29549;40.386;-3.710;2023-09-19T01:12:05;20.30;64.30
43541;DHT22;29549;40.386;-3.710;2023-09-19T01:12:22;20.40;64.30
43541;DHT22;29549;40.386;-3.710;2023-09-19T01:13:25;20.30;64.50
43541;DHT22;29549;40.386;-3.710;2023-09-19T01:13:48;20.30;64.50
43541;DHT22;29549;40.386;-3.710;2023-09-19T01:14:54;20.40;64.50
43541;DHT22;29549;40.386;-3.710;2023-09-19T01:15:28;20.30;64.60
43541;DHT22;29549;40.386;-3.710;2023-09-19T01:16:53;20.30;64.70
43541;DHT22;29549;40.386;-3.710;2023-09-19T01:17:14;20.30;64.70
43541;DHT22;29549;40.386;-3.710;2023-09-19T01:17:32;20.30;64.70
43541;DHT22;29549;40.386;-3.710;2023-09-19T01:18:43;20.30;64.70
43541;DHT22;29549;40.386;-3.710;2023-09-19T01:19:22;20.30;64.70
43541;DHT22;29549;40.386;-3.710;2023-09-19T01:20:43;20.30;64.90
43541;DHT22;29549;40.386;-3.710;2023-09-19T01:22:24;20.30;64.90
43541;DHT22;29549;40.386;-3.710;2023-09-19T01:22:59;20.20;65.00
43541;DHT22;29549;40.386;-3.710;2023-09-19T01:24:59;20.30;64.80
43541;DHT22;29549;40.386;-3.710;2023-09-19T01:25:50;20.30;64.50
43541;DHT22;29549;40.386;-3.710;2023-09-19T01:27:21;20.20;64.40
43541;DHT22;29549;40.386;-3.710;2023-09-19T01:28:10;20.30;64.40